Time;durP1;ratioP1;P1;durP2;ratioP2;P2;SDS_P1;SDS_P2;PMS_P1;PMS_P2;Temp;Humidity;BMP_temperature;BMP_pressure;BME280_temperature;BME280_humidity;BME280_pressure;Samples;Min_cycle;Max_cycle;Signal;HPM_P1;HPM_P2
2023/06/29 00:01:24;;;;;;;30.88;29.65;;;;;;;-141.02;100.00;107971.50;5133055;28;20192;-67
2023/06/29 00:03:52;;;;;;;31.60;30.30;;;;;;;-141.02;100.00;107971.50;5133165;27;20192;-66
2023/06/29 00:06:21;;;;;;;31.08;29.85;;;;;;;-141.02;100.00;107971.50;5133033;28;20198;-66
2023/06/29 00:08:48;;;;;;;29.88;28.67;;;;;;;-141.02;100.00;107971.50;5133050;28;20212;-66
2023/06/29 00:11:18;;;;;;;31.02;29.80;;;;;;;-141.02;100.00;107971.50;5133089;27;20192;-67
2023/06/29 00:13:45;;;;;;;29.20;28.00;;;;;;;-141.02;100.00;107971.50;5132666;28;20196;-66
2023/06/29 00:16:16;;;;;;;24.30;23.40;;;;;;;-141.02;100.00;107971.50;5133040;27;20241;-67
2023/06/29 00:18:55;;;;;;;24.65;23.75;;;;;;;-141.02;100.00;107971.50;5132613;27;20224;-66
2023/06/29 00:21:25;;;;;;;24.17;23.27;;;;;;;-141.02;100.00;107971.50;5136196;27;20238;-66
2023/06/29 00:23:55;;;;;;;23.58;22.67;;;;;;;-141.02;100.00;107971.50;5136870;27;20220;-66
2023/06/29 00:26:22;;;;;;;23.30;22.40;;;;;;;-141.02;100.00;107971.50;5137013;27;20227;-66
2023/06/29 00:28:56;;;;;;;23.35;22.45;;;;;;;-141.02;100.00;107971.50;5137550;27;20204;-66
2023/06/29 00:31:24;;;;;;;23.92;23.02;;;;;;;-141.02;100.00;107971.50;5136942;27;20196;-66
2023/06/29 00:33:51;;;;;;;25.60;24.60;;;;;;;-141.02;100.00;107971.50;5136596;27;20192;-66
2023/06/29 00:36:29;;;;;;;25.50;24.50;;;;;;;-141.02;100.00;107971.50;5136517;27;20200;-66
2023/06/29 00:38:56;;;;;;;26.02;25.02;;;;;;;-141.02;100.00;107971.50;5136750;27;20223;-66
2023/06/29 00:41:29;;;;;;;28.00;26.90;;;;;;;-141.02;100.00;107971.50;5136434;27;20241;-66
2023/06/29 00:43:56;;;;;;;24.58;23.67;;;;;;;-141.02;100.00;107971.50;5136834;27;20285;-65
2023/06/29 00:46:35;;;;;;;27.08;26.05;;;;;;;-141.02;100.00;107971.50;5136345;27;20283;-65
2023/06/29 00:52:25;;;;;;;25.52;24.52;;;;;;;-141.02;100.00;107971.50;5136573;27;20272;-65
2023/06/29 00:55:25;;;;;;;25.45;24.48;;;;;;;-141.02;100.00;107971.50;5136883;27;20241;-64
2023/06/29 01:08:06;;;;;;;37.47;35.97;;;;;;;-141.02;100.00;107971.50;5136007;27;20199;-65
2023/06/29 01:13:55;;;;;;;43.60;41.72;;;;;;;-141.02;100.00;107971.50;5135820;27;20637;-65
2023/06/29 01:16:23;;;;;;;40.78;39.08;;;;;;;-141.02;100.00;107971.50;5136146;27;20192;-65
2023/06/29 01:18:52;;;;;;;40.67;38.97;;;;;;;-141.02;100.00;107971.50;5135572;27;20269;-65
2023/06/29 01:22:00;;;;;;;40.22;38.53;;;;;;;-141.02;100.00;107971.50;5135641;27;20590;-66
2023/06/29 01:27:50;;;;;;;47.20;45.15;;;;;;;-141.02;100.00;107971.50;5135880;27;20184;-65
2023/06/29 01:30:49;;;;;;;44.08;42.17;;;;;;;-141.02;100.00;107971.50;5135509;27;20206;-65
2023/06/29 01:33:18;;;;;;;38.03;36.42;;;;;;;-141.02;100.00;107971.50;5134769;27;20196;-64
2023/06/29 01:39:09;;;;;;;33.70;32.30;;;;;;;-141.02;100.00;107971.50;5135375;27;20256;-64
2023/06/29 01:41:40;;;;;;;35.95;34.45;;;;;;;-141.02;100.00;107971.50;5135104;27;20228;-64
2023/06/29 01:44:12;;;;;;;35.70;34.22;;;;;;;-141.02;100.00;107971.50;5133972;27;20216;-64
2023/06/29 01:46:40;;;;;;;42.35;40.55;;;;;;;-141.02;100.00;107971.50;5135556;27;20220;-64
2023/06/29 01:55:50;;;;;;;37.38;35.83;;;;;;;-141.02;100.00;107971.50;5135043;27;20203;-64
2023/06/29 01:58:17;;;;;;;30.58;29.38;;;;;;;-141.02;100.00;107971.50;5134848;27;20270;-64
2023/06/29 02:00:45;;;;;;;28.05;26.95;;;;;;;-141.02;100.00;107971.50;5134919;27;20199;-64
2023/06/29 02:03:48;;;;;;;28.00;26.90;;;;;;;-141.02;100.00;107971.50;5134864;27;20673;-64
2023/06/29 02:06:15;;;;;;;26.92;25.92;;;;;;;-141.02;100.00;107971.50;5135157;27;20261;-64
2023/06/29 02:12:04;;;;;;;32.60;31.30;;;;;;;-141.02;100.00;107971.50;5135072;27;20219;-64
2023/06/29 02:15:00;;;;;;;35.15;33.75;;;;;;;-141.02;100.00;107971.50;5134873;27;20188;-64
2023/06/29 02:18:11;;;;;;;39.53;37.92;;;;;;;-141.02;100.00;107971.50;5134565;27;20622;-64
2023/06/29 02:24:04;;;;;;;39.90;38.22;;;;;;;-141.02;100.00;107971.50;5134447;27;20195;-64
2023/06/29 02:26:31;;;;;;;38.50;36.90;;;;;;;-141.02;100.00;107971.50;5134440;27;20193;-64
2023/06/29 02:28:58;;;;;;;36.05;34.55;;;;;;;-141.02;100.00;107971.50;5134286;27;20199;-64
2023/06/29 02:38:08;;;;;;;28.65;27.55;;;;;;;-141.02;100.00;107971.50;5134693;27;20215;-64
2023/06/29 02:40:37;;;;;;;25.17;24.23;;;;;;;-141.02;100.00;107971.50;5134446;27;20231;-64
2023/06/29 02:43:06;;;;;;;23.33;22.42;;;;;;;-141.02;100.00;107971.50;5134059;27;20224;-64
2023/06/29 02:45:33;;;;;;;20.65;19.95;;;;;;;-141.02;100.00;107971.50;5134344;27;20243;-64
2023/06/29 02:48:00;;;;;;;19.00;18.40;;;;;;;-141.02;100.00;107971.50;5134293;27;20197;-64
2023/06/29 02:50:28;;;;;;;19.08;18.38;;;;;;;-141.02;100.00;107971.50;5134264;27;20650;-64
2023/06/29 02:52:54;;;;;;;18.80;18.20;;;;;;;-141.02;100.00;107971.50;5134002;27;20195;-64
2023/06/29 02:55:22;;;;;;;18.33;17.73;;;;;;;-141.02;100.00;107971.50;5133926;27;20193;-64
2023/06/29 02:57:51;;;;;;;17.55;16.95;;;;;;;-141.02;100.00;107971.50;5134185;27;20200;-64
2023/06/29 03:00:18;;;;;;;18.67;18.08;;;;;;;-141.02;100.00;107971.50;5133981;27;20236;-64
2023/06/29 03:02:45;;;;;;;15.80;15.30;;;;;;;-141.02;100.00;107971.50;5133782;27;20189;-64
2023/06/29 03:05:12;;;;;;;18.25;17.65;;;;;;;-141.02;100.00;107971.50;5134042;27;20228;-64
2023/06/29 03:07:39;;;;;;;18.42;17.83;;;;;;;-141.02;100.00;107971.50;5134222;27;20196;-64
2023/06/29 03:10:07;;;;;;;18.20;17.60;;;;;;;-141.02;100.00;107971.50;5134180;27;20301;-64
2023/06/29 03:12:34;;;;;;;17.60;17.00;;;;;;;-141.02;100.00;107971.50;5133849;27;20195;-64
2023/06/29 03:15:13;;;;;;;17.05;16.48;;;;;;;-141.02;100.00;107971.50;5133571;27;20283;-64
2023/06/29 03:17:40;;;;;;;17.30;16.70;;;;;;;-141.02;100.00;107971.50;5133730;27;20192;-64
2023/06/29 03:20:08;;;;;;;16.75;16.25;;;;;;;-141.02;100.00;107971.50;5133652;27;20224;-64
2023/06/29 03:22:35;;;;;;;15.38;14.88;;;;;;;-141.02;100.00;107971.50;5133405;27;20196;-64
2023/06/29 03:25:55;;;;;;;15.05;14.55;;;;;;;-141.02;100.00;107971.50;5133641;27;20250;-64
2023/06/29 03:28:22;;;;;;;12.82;12.43;;;;;;;-141.02;100.00;107971.50;5133686;27;20192;-64
2023/06/29 03:34:12;;;;;;;14.50;14.10;;;;;;;-141.02;100.00;107971.50;5133174;27;20711;-64
2023/06/29 03:36:59;;;;;;;14.27;13.88;;;;;;;-141.02;100.00;107971.50;5132552;27;20196;-64
2023/06/29 03:39:26;;;;;;;14.55;14.15;;;;;;;-141.02;100.00;107971.50;5133447;27;20686;-64
2023/06/29 03:41:53;;;;;;;13.85;13.45;;;;;;;-141.02;100.00;107971.50;5133506;27;20565;-64
2023/06/29 03:44:20;;;;;;;14.00;13.60;;;;;;;-141.02;100.00;107971.50;5133186;27;20232;-64
2023/06/29 03:46:48;;;;;;;13.20;12.80;;;;;;;-141.02;100.00;107971.50;5133406;27;20188;-64
2023/06/29 03:49:16;;;;;;;13.43;13.02;;;;;;;-141.02;100.00;107971.50;5132942;27;20192;-64
2023/06/29 03:51:43;;;;;;;10.82;10.52;;;;;;;-141.02;100.00;107971.50;5133551;27;20200;-64
2023/06/29 03:54:10;;;;;;;8.48;8.27;;;;;;;-141.02;100.00;107971.50;5133042;27;20214;-63
2023/06/29 03:56:37;;;;;;;8.00;7.80;;;;;;;-141.02;100.00;107971.50;5133020;28;20192;-63
2023/06/29 03:59:04;;;;;;;7.60;7.40;;;;;;;-141.02;100.00;107971.50;5133188;28;20224;-63
2023/06/29 04:01:31;;;;;;;8.90;8.70;;;;;;;-141.02;100.00;107971.50;5133175;28;20193;-62
2023/06/29 04:03:58;;;;;;;9.20;9.00;;;;;;;-141.02;100.00;107971.50;5133220;28;20196;-62
2023/06/29 04:06:26;;;;;;;15.65;15.15;;;;;;;-141.02;100.00;107971.50;5133064;28;20295;-62
2023/06/29 04:08:53;;;;;;;19.33;18.52;;;;;;;-141.02;100.00;107971.50;5133637;28;20583;-61
2023/06/29 04:11:20;;;;;;;21.77;20.88;;;;;;;-141.02;100.00;107971.50;5132777;28;20281;-61
2023/06/29 04:13:47;;;;;;;23.67;22.58;;;;;;;-141.02;100.00;107971.50;5132788;28;20196;-61
2023/06/29 04:16:14;;;;;;;23.80;22.63;;;;;;;-141.02;100.00;107971.50;5133143;27;20200;-60
2023/06/29 04:18:42;;;;;;;24.70;23.50;;;;;;;-141.02;100.00;107971.50;5132955;28;20192;-60
2023/06/29 04:21:09;;;;;;;25.42;24.13;;;;;;;-141.02;100.00;107971.50;5132761;27;20192;-60
2023/06/29 04:23:37;;;;;;;23.70;22.60;;;;;;;-141.02;100.00;107971.50;5132917;28;20207;-60
2023/06/29 04:26:04;;;;;;;21.20;20.30;;;;;;;-141.02;100.00;107971.50;5132703;28;20199;-60
2023/06/29 04:28:35;;;;;;;18.55;17.85;;;;;;;-141.02;100.00;107971.50;5132649;28;20232;-59
2023/06/29 04:31:02;;;;;;;16.40;15.80;;;;;;;-141.02;100.00;107969.53;5132868;28;20657;-59
2023/06/29 04:33:29;;;;;;;15.27;14.70;;;;;;;-141.02;100.00;107969.53;5132578;28;20189;-59
2023/06/29 04:35:56;;;;;;;15.30;14.70;;;;;;;-141.02;100.00;107719.09;5132474;28;20188;-59
2023/06/29 04:38:27;;;;;;;16.33;15.63;;;;;;;-141.02;100.00;107969.53;5132640;28;20188;-59
2023/06/29 04:41:03;;;;;;;16.92;16.13;;;;;;;-141.02;100.00;107969.53;5132536;28;20780;-59
2023/06/29 04:43:30;;;;;;;16.80;16.10;;;;;;;-141.02;100.00;107969.53;5132467;28;20365;-58
2023/06/29 04:45:57;;;;;;;17.15;16.35;;;;;;;-141.02;100.00;107969.53;5133095;27;20223;-59
2023/06/29 04:48:36;;;;;;;17.58;16.77;;;;;;;-141.02;100.00;107969.53;5132744;28;20197;-59
2023/06/29 04:51:05;;;;;;;18.42;17.52;;;;;;;-141.02;100.00;107969.53;5132492;28;20184;-59
2023/06/29 04:53:32;;;;;;;18.40;17.50;;;;;;;-141.02;100.00;107969.53;5132764;28;20189;-59
2023/06/29 04:56:01;;;;;;;18.88;17.98;;;;;;;-141.02;100.00;107969.53;5132823;27;20224;-58
2023/06/29 04:58:29;;;;;;;19.38;18.48;;;;;;;-141.02;100.00;107468.69;5132326;27;20200;-59
2023/06/29 05:00:57;;;;;;;18.40;17.50;;;;;;;-141.02;100.00;107468.69;5132605;28;20235;-59
2023/06/29 05:03:25;;;;;;;18.75;17.85;;;;;;;-141.02;100.00;107218.31;5132593;28;20188;-59
2023/06/29 05:05:52;;;;;;;18.50;17.50;;;;;;;-141.02;100.00;106967.91;5132639;27;20272;-59
2023/06/29 05:08:19;;;;;;;17.83;16.92;;;;;;;-141.02;100.00;107218.31;5135087;27;20677;-59
2023/06/29 05:10:50;;;;;;;17.92;17.02;;;;;;;-141.02;100.00;106967.91;5136202;27;20275;-59
2023/06/29 05:13:18;;;;;;;18.08;17.17;;;;;;;-141.02;100.00;106967.91;5136199;27;20231;-59
2023/06/29 05:15:47;;;;;;;18.80;17.90;;;;;;;-141.02;100.00;106967.91;5136164;27;20246;-59
2023/06/29 05:18:15;;;;;;;17.73;16.83;;;;;;;-141.02;100.00;107218.31;5136097;27;20192;-59
2023/06/29 05:20:42;;;;;;;17.65;16.85;;;;;;;-141.02;100.00;106967.91;5135893;27;20232;-59
2023/06/29 05:23:11;;;;;;;16.25;15.55;;;;;;;-141.02;100.00;107969.53;5135691;27;20642;-59
2023/06/29 05:25:38;;;;;;;16.63;15.82;;;;;;;-141.02;100.00;106967.91;5135975;27;20192;-59
2023/06/29 05:28:05;;;;;;;16.60;15.75;;;;;;;-141.02;100.00;106216.91;5135881;27;20253;-59
2023/06/29 05:30:34;;;;;;;15.50;14.80;;;;;;;-141.02;100.00;106967.91;5135893;27;20192;-60
2023/06/29 05:33:01;;;;;;;16.00;15.20;;;;;;;-141.02;100.00;106717.56;5135760;27;20299;-60
2023/06/29 05:35:28;;;;;;;15.30;14.70;;;;;;;-141.02;100.00;107218.31;5135818;27;20228;-59
2023/06/29 05:37:55;;;;;;;15.20;14.50;;;;;;;-141.02;100.00;107218.31;5135402;27;20313;-59
2023/06/29 05:40:22;;;;;;;14.52;13.82;;;;;;;-141.02;100.00;107468.69;5135609;27;20331;-60
2023/06/29 05:42:48;;;;;;;15.40;14.70;;;;;;;-141.02;100.00;106717.56;5135493;27;20306;-59
2023/06/29 05:45:15;;;;;;;15.45;14.75;;;;;;;-141.02;100.00;106967.91;5135588;27;20279;-59
2023/06/29 05:47:44;;;;;;;14.13;13.52;;;;;;;-141.02;100.00;107218.31;5135559;27;20374;-59
2023/06/29 05:50:11;;;;;;;14.30;13.70;;;;;;;-141.02;100.00;107468.69;5135185;27;20701;-59
2023/06/29 05:52:38;;;;;;;14.10;13.50;;;;;;;-141.02;100.00;107719.09;5135468;27;20291;-60
2023/06/29 05:55:06;;;;;;;15.10;14.40;;;;;;;-141.02;100.00;106717.56;5135117;27;20189;-59
2023/06/29 05:57:33;;;;;;;14.20;13.60;;;;;;;-141.02;100.00;107218.31;5135346;27;20249;-59
2023/06/29 06:00:01;;;;;;;14.48;13.88;;;;;;;-141.02;100.00;107218.31;5134944;27;20703;-59
2023/06/29 06:02:28;;;;;;;13.27;12.77;;;;;;;-141.02;100.00;107218.31;5135281;27;20199;-59
2023/06/29 06:04:56;;;;;;;13.70;13.10;;;;;;;-141.02;100.00;107719.09;5134916;27;20196;-59
2023/06/29 06:07:30;;;;;;;13.57;12.98;;;;;;;-141.02;100.00;107468.69;5134758;27;20283;-59
2023/06/29 06:09:57;;;;;;;13.93;13.30;;;;;;;-141.02;100.00;107468.69;5134844;27;20566;-59
2023/06/29 06:12:24;;;;;;;13.73;13.13;;;;;;;-141.02;100.00;107468.69;5135050;27;20283;-59
2023/06/29 06:14:51;;;;;;;14.27;13.57;;;;;;;-141.02;100.00;107468.69;5135049;27;20199;-59
2023/06/29 06:17:18;;;;;;;14.13;13.43;;;;;;;-141.02;100.00;107468.69;5134487;27;20633;-60
2023/06/29 06:19:46;;;;;;;14.30;13.60;;;;;;;-141.02;100.00;107468.69;5134882;27;20223;-59
2023/06/29 06:22:14;;;;;;;14.98;14.18;;;;;;;-141.02;100.00;107468.69;5134470;27;20681;-59
2023/06/29 06:24:41;;;;;;;15.43;14.52;;;;;;;-141.02;100.00;106967.91;5134766;27;20275;-59
2023/06/29 06:27:08;;;;;;;15.18;14.27;;;;;;;-141.02;100.00;106967.91;5134774;27;20346;-59
2023/06/29 06:29:35;;;;;;;15.38;14.48;;;;;;;-141.02;100.00;107468.69;5135041;27;20253;-59
2023/06/29 06:32:02;;;;;;;16.42;15.32;;;;;;;-141.02;100.00;106467.22;5134322;27;20207;-59
2023/06/29 06:34:30;;;;;;;16.05;14.95;;;;;;;-141.02;100.00;106717.56;5134592;27;20220;-59
2023/06/29 06:36:58;;;;;;;16.67;15.48;;;;;;;-141.02;100.00;105716.31;5134260;27;20224;-59
2023/06/29 06:39:27;;;;;;;16.90;15.60;;;;;;;-141.02;100.00;106216.91;5134432;27;20199;-59
2023/06/29 06:41:54;;;;;;;16.98;15.68;;;;;;;-141.02;100.00;105716.31;5134442;27;20196;-59
2023/06/29 06:44:21;;;;;;;16.65;15.45;;;;;;;-141.02;100.00;106216.91;5134267;27;20612;-60
2023/06/29 06:46:48;;;;;;;16.52;15.23;;;;;;;-141.02;100.00;105966.59;5134048;27;20199;-59
2023/06/29 06:49:15;;;;;;;17.23;15.93;;;;;;;-141.02;100.00;106216.91;5133978;27;20288;-59
2023/06/29 06:51:42;;;;;;;17.13;15.82;;;;;;;-141.02;100.00;105466.03;5133916;27;20604;-59
2023/06/29 06:54:09;;;;;;;17.90;16.40;;;;;;;-141.02;100.00;104965.56;5133853;27;20569;-59
2023/06/29 06:56:37;;;;;;;17.98;16.48;;;;;;;-141.02;100.00;104965.56;5134232;27;20196;-59
2023/06/29 06:59:05;;;;;;;18.30;16.80;;;;;;;-141.02;100.00;104214.97;5134135;27;20214;-59
2023/06/29 07:01:32;;;;;;;17.08;15.75;;;;;;;-141.02;100.00;104965.56;5134007;27;20224;-59
2023/06/29 07:03:59;;;;;;;17.25;15.85;;;;;;;-141.02;100.00;105215.78;5134081;27;20192;-59
2023/06/29 07:06:30;;;;;;;18.50;16.90;;;;;;;-141.02;100.00;104965.56;5133634;27;20196;-59
2023/06/29 07:08:59;;;;;;;17.38;15.98;;;;;;;-141.02;100.00;105466.03;5133724;27;20642;-59
2023/06/29 07:11:26;;;;;;;17.38;15.98;;;;;;;-141.02;100.00;105966.59;5133512;27;20288;-59
2023/06/29 07:13:54;;;;;;;18.02;16.52;;;;;;;-141.02;100.00;104465.16;5133860;27;20572;-59
2023/06/29 07:16:23;;;;;;;19.20;17.50;;;;;;;-141.02;100.00;103714.66;5133594;27;20227;-59
2023/06/29 07:19:04;;;;;;;18.52;16.92;;;;;;;-141.02;100.00;103714.66;5133728;27;20197;-59
2023/06/29 07:21:31;;;;;;;18.80;17.10;;;;;;;-141.02;100.00;103714.66;5133585;27;20219;-59
2023/06/29 07:23:58;;;;;;;19.77;17.95;;;;;;;-141.02;100.00;102214.16;5133383;27;20188;-59
2023/06/29 07:26:25;;;;;;;19.58;17.77;;;;;;;-141.02;100.00;102964.34;5133628;27;20220;-59
2023/06/29 07:28:54;;;;;;;18.00;16.50;;;;;;;-141.02;100.00;103464.53;5133094;27;20200;-59
2023/06/29 07:31:24;;;;;;;19.00;17.30;;;;;;;-141.02;100.00;103464.53;5133088;27;20279;-59
2023/06/29 07:33:52;;;;;;;18.33;16.83;;;;;;;-141.02;100.00;103464.53;5133211;27;20681;-59
2023/06/29 07:36:19;;;;;;;16.98;15.68;;;;;;;-141.02;100.00;104214.97;5133208;27;20580;-59
2023/06/29 07:38:46;;;;;;;18.00;16.50;;;;;;;-141.02;100.00;103714.66;5133537;27;20586;-59
2023/06/29 07:41:13;;;;;;;18.60;17.10;;;;;;;-141.02;100.00;102714.25;5133572;27;20253;-58
2023/06/29 07:43:41;;;;;;;16.75;15.55;;;;;;;-141.02;100.00;104465.16;5133215;27;20220;-58
2023/06/29 07:46:09;;;;;;;18.30;16.85;;;;;;;-141.02;100.00;104214.97;5133018;27;20192;-59
2023/06/29 07:48:36;;;;;;;19.88;18.08;;;;;;;-141.02;100.00;103214.44;5133788;27;20279;-58
2023/06/29 07:51:04;;;;;;;21.25;19.35;;;;;;;-141.02;100.00;102964.34;5133333;27;20198;-59
2023/06/29 07:53:31;;;;;;;21.73;19.63;;;;;;;-141.02;100.00;102214.16;5133302;28;20201;-59
2023/06/29 07:55:59;;;;;;;21.50;19.40;;;;;;;-141.02;99.17;101714.16;5132875;28;20638;-58
2023/06/29 07:58:26;;;;;;;22.77;20.48;;;;;;;-141.02;98.38;100714.34;5133213;28;20624;-59
2023/06/29 08:00:53;;;;;;;21.50;19.40;;;;;;;-141.02;98.63;99964.66;5133196;28;20227;-59
2023/06/29 08:03:21;;;;;;;22.45;20.25;;;;;;;-141.02;96.84;100214.53;5132940;28;20232;-59
2023/06/29 08:05:48;;;;;;;20.50;18.60;;;;;;;-141.02;100.00;100464.44;5132915;28;20654;-58
2023/06/29 08:08:15;;;;;;;20.75;18.83;;;;;;;-141.02;100.00;100964.25;5133054;28;20188;-58
2023/06/29 08:10:42;;;;;;;19.85;18.05;;;;;;;-141.02;100.00;100964.25;5133129;27;20275;-58
2023/06/29 08:13:09;;;;;;;20.20;18.40;;;;;;;-141.02;100.00;101714.16;5132996;28;20199;-58
2023/06/29 08:15:36;;;;;;;21.25;19.25;;;;;;;-141.02;100.00;100964.25;5133052;28;20290;-58
2023/06/29 08:18:03;;;;;;;17.65;16.25;;;;;;;-141.02;100.00;102214.16;5132794;27;20256;-58
2023/06/29 08:20:32;;;;;;;21.08;19.08;;;;;;;-141.02;100.00;100464.44;5132954;27;20303;-58
2023/06/29 08:22:59;;;;;;;19.33;17.63;;;;;;;-141.02;100.00;100964.25;5132710;28;20188;-58
2023/06/29 08:25:26;;;;;;;20.25;18.45;;;;;;;-141.02;100.00;101214.22;5132671;28;20620;-58
2023/06/29 08:27:53;;;;;;;21.23;19.27;;;;;;;-141.02;100.00;101964.16;5132923;28;20280;-58
2023/06/29 08:30:20;;;;;;;22.02;19.92;;;;;;;-141.02;100.00;100214.53;5132923;28;20570;-58
2023/06/29 08:32:48;;;;;;;21.80;19.70;;;;;;;-141.02;100.00;100214.53;5132604;28;20192;-58
2023/06/29 08:35:15;;;;;;;21.58;19.58;;;;;;;-141.02;100.00;100714.34;5132595;28;20220;-59
2023/06/29 08:37:43;;;;;;;20.58;18.67;;;;;;;-141.02;98.89;100714.34;5132634;28;20680;-58
2023/06/29 08:40:12;;;;;;;21.65;19.55;;;;;;;-141.02;99.61;100714.34;5132456;28;20228;-58
2023/06/29 08:42:40;;;;;;;20.42;18.52;;;;;;;-141.02;100.00;100214.53;5136187;27;20307;-59
2023/06/29 08:45:08;;;;;;;21.15;19.08;;;;;;;-141.02;98.84;98715.56;5137026;27;20206;-59
2023/06/29 08:47:38;;;;;;;19.75;17.95;;;;;;;-141.02;100.00;100964.25;5136754;27;20189;-58
2023/06/29 08:50:07;;;;;;;21.92;19.83;;;;;;;-141.02;99.56;100714.34;5136379;27;20667;-58
2023/06/29 08:52:35;;;;;;;30.13;27.42;;;;;;;-141.02;98.55;99714.81;5136267;27;20631;-59
2023/06/29 08:55:05;;;;;;;27.33;24.92;;;;;;;-141.02;96.99;99964.66;5136735;27;20196;-58
2023/06/29 08:57:34;;;;;;;22.52;20.33;;;;;;;-141.02;96.57;99215.16;5136547;27;20279;-59
2023/06/29 09:00:04;;;;;;;25.70;23.50;;;;;;;-141.02;99.51;100714.34;5136132;27;20609;-58
2023/06/29 09:02:33;;;;;;;21.98;19.88;;;;;;;-141.02;100.00;100964.25;5136390;27;20628;-58
2023/06/29 09:05:00;;;;;;;21.92;19.83;;;;;;;-141.02;98.58;101714.16;5136338;27;20200;-59
2023/06/29 09:07:27;;;;;;;23.70;21.30;;;;;;;-141.02;87.81;98715.56;5136313;27;20239;-59
2023/06/29 09:09:55;;;;;;;23.17;20.83;;;;;;;-141.02;95.44;98965.34;5136347;27;20276;-59
2023/06/29 09:12:23;;;;;;;28.90;26.30;;;;;;;-141.02;94.66;98216.03;5136334;27;20197;-58
2023/06/29 09:14:50;;;;;;;22.20;20.10;;;;;;;-141.02;96.08;100214.53;5136115;27;20232;-59
2023/06/29 09:17:20;;;;;;;23.20;20.90;;;;;;;-141.02;90.84;98965.34;5135891;27;20279;-58
2023/06/29 09:19:54;;;;;;;29.13;26.42;;;;;;;-141.02;91.81;97466.91;5135792;27;20715;-58
2023/06/29 09:22:22;;;;;;;22.90;20.60;;;;;;;-141.02;98.85;98715.56;5135731;27;20601;-59
2023/06/29 09:24:49;;;;;;;26.30;24.00;;;;;;;-141.02;100.00;100214.53;5135940;27;20275;-59
2023/06/29 09:27:16;;;;;;;21.45;19.35;;;;;;;-141.02;96.65;98965.34;5136513;27;20283;-58
2023/06/29 09:29:52;;;;;;;24.85;22.45;;;;;;;-141.02;92.28;98965.34;5135626;27;20193;-59
2023/06/29 09:32:21;;;;;;;24.25;21.95;;;;;;;-141.02;94.67;98715.56;5136177;27;20211;-59
2023/06/29 09:34:50;;;;;;;23.67;21.27;;;;;;;-141.02;90.35;98465.78;5135442;27;20189;-59
2023/06/29 09:37:17;;;;;;;24.77;22.38;;;;;;;-141.02;89.98;96717.94;5135796;27;20193;-58
2023/06/29 09:39:58;;;;;;;25.27;22.88;;;;;;;-141.02;91.71;96468.31;5135422;27;20619;-58
2023/06/29 09:42:29;;;;;;;29.92;27.40;;;;;;;-141.02;95.86;98965.34;5135645;27;20231;-58
2023/06/29 09:45:02;;;;;;;23.48;21.17;;;;;;;-141.02;93.07;98965.34;5135334;27;20196;-59
2023/06/29 09:47:30;;;;;;;23.13;20.92;;;;;;;-141.02;93.38;99464.97;5135361;27;20185;-58
2023/06/29 09:49:56;;;;;;;30.48;27.67;;;;;;;-141.02;86.96;97217.22;5135670;27;20197;-58
2023/06/29 09:52:23;;;;;;;28.45;25.92;;;;;;;-141.02;90.69;98216.03;5135084;27;20224;-59
2023/06/29 09:54:51;;;;;;;24.10;21.70;;;;;;;-141.02;87.60;97466.91;5135033;27;20201;-59
2023/06/29 09:57:19;;;;;;;25.75;23.35;;;;;;;-141.02;91.53;98216.03;5135185;27;20662;-59
2023/06/29 09:59:46;;;;;;;24.63;22.13;;;;;;;-141.02;85.65;97716.59;5134996;27;20276;-58
2023/06/29 10:02:15;;;;;;;23.55;21.23;;;;;;;-141.02;87.79;98216.03;5135106;27;20311;-59
2023/06/29 10:04:43;;;;;;;30.65;27.77;;;;;;;-141.02;85.35;95719.53;5135270;27;20197;-58
2023/06/29 10:07:16;;;;;;;24.73;22.30;;;;;;;-141.02;86.60;97217.22;5134910;27;20192;-72
2023/06/29 10:09:46;;;;;;;25.85;23.35;;;;;;;-141.02;83.95;96717.94;5135215;27;20264;-59
2023/06/29 10:12:14;;;;;;;32.13;29.23;;;;;;;-141.02;82.63;96717.94;5135143;27;20653;-58
2023/06/29 10:14:44;;;;;;;23.40;20.90;;;;;;;-141.02;87.30;97716.59;5134685;27;20288;-61
2023/06/29 10:17:16;;;;;;;22.27;19.88;;;;;;;-141.02;83.72;94970.94;5134772;27;20224;-59
2023/06/29 10:19:45;;;;;;;23.35;20.85;;;;;;;-141.02;84.84;96717.94;5134658;27;20188;-59
2023/06/29 10:22:14;;;;;;;22.80;20.50;;;;;;;-141.02;84.99;97217.22;5134486;27;20670;-60
2023/06/29 10:24:46;;;;;;;23.15;20.75;;;;;;;-141.02;81.85;94970.94;5134869;27;20224;-59
2023/06/29 10:27:15;;;;;;;23.63;21.20;;;;;;;-141.02;81.62;96218.69;5134882;27;20204;-61
2023/06/29 10:29:45;;;;;;;23.35;20.90;;;;;;;-141.02;82.26;96218.69;5134627;27;20193;-59
2023/06/29 10:32:32;;;;;;;27.40;23.55;;;;;;;-141.02;85.95;96717.94;5134631;27;20678;-60
2023/06/29 10:35:10;;;;;;;24.60;22.00;;;;;;;-141.02;80.90;95470.00;5134575;27;20638;-58
2023/06/29 10:37:38;;;;;;;23.27;20.98;;;;;;;-141.02;87.59;97716.59;5134371;27;20236;-59
2023/06/29 10:40:13;;;;;;;24.15;21.55;;;;;;;-141.02;78.83;96468.31;5134209;27;20291;-59
2023/06/29 10:42:51;;;;;;;23.95;21.38;;;;;;;-141.02;78.58;95470.00;5134356;27;20239;-59
2023/06/29 10:45:34;;;;;;;24.10;21.50;;;;;;;-141.02;78.31;95969.13;5134522;27;20192;-64
2023/06/29 10:48:12;;;;;;;23.75;21.25;;;;;;;-141.02;80.31;95969.13;5134301;27;20188;-64
2023/06/29 10:50:42;;;;;;;23.88;21.27;;;;;;;-141.02;80.14;95220.47;5134370;27;20242;-58
2023/06/29 10:53:11;;;;;;;23.52;21.02;;;;;;;-141.02;78.63;94721.44;5133909;27;20570;-59
2023/06/29 10:55:50;;;;;;;22.77;20.42;;;;;;;-141.02;87.71;97466.91;5134258;27;20548;-59
2023/06/29 10:58:22;;;;;;;25.08;22.38;;;;;;;-141.02;76.16;95470.00;5134167;27;20191;-58
2023/06/29 11:00:51;;;;;;;23.90;21.30;;;;;;;-141.02;83.19;95719.53;5133917;27;20184;-59
2023/06/29 11:03:20;;;;;;;24.02;21.30;;;;;;;-141.02;70.48;93723.63;5133676;27;20241;-59
2023/06/29 11:05:50;;;;;;;24.40;21.60;;;;;;;-141.02;74.23;94471.97;5133981;27;20188;-59
2023/06/29 11:08:17;;;;;;;24.58;21.83;;;;;;;-141.02;75.83;93474.22;5133934;27;20200;-59
2023/06/29 11:10:44;;;;;;;24.42;21.60;;;;;;;-141.02;76.80;93474.22;5133989;27;20231;-59
2023/06/29 11:13:12;;;;;;;24.23;21.25;;;;;;;-141.02;73.71;93973.06;5133866;27;20196;-58
2023/06/29 11:15:39;;;;;;;24.45;21.65;;;;;;;-141.02;73.13;94222.50;5134068;27;20207;-58
2023/06/29 11:18:07;;;;;;;24.48;21.40;;;;;;;-141.02;75.95;93474.22;5133702;27;20637;-58
2023/06/29 11:20:38;;;;;;;24.15;21.05;;;;;;;-141.02;72.54;92975.47;5133418;27;20542;-59
2023/06/29 11:23:07;;;;;;;23.70;20.95;;;;;;;-141.02;77.48;92726.13;5133459;27;20611;-59
2023/06/29 11:25:36;;;;;;;24.38;21.35;;;;;;;-141.02;76.11;91728.88;5133502;27;20195;-59
2023/06/29 11:28:04;;;;;;;23.30;20.80;;;;;;;-141.02;76.42;91230.38;5133955;27;20272;-60
2023/06/29 11:30:31;;;;;;;23.95;21.35;;;;;;;-141.02;77.56;92975.47;5133332;27;20198;-58
2023/06/29 11:32:58;;;;;;;24.05;21.45;;;;;;;-141.02;79.47;94471.97;5133353;27;20288;-60
2023/06/29 11:35:25;;;;;;;23.85;21.25;;;;;;;-141.02;75.87;93973.06;5133223;27;20192;-58
2023/06/29 11:38:00;;;;;;;24.27;21.67;;;;;;;-141.02;70.97;93224.84;5133510;27;20660;-58
2023/06/29 11:40:27;;;;;;;24.90;21.52;;;;;;;-141.02;70.16;92227.47;5133896;27;20230;-59
2023/06/29 11:42:55;;;;;;;24.77;21.60;;;;;;;-141.02;71.65;92227.47;5132867;27;20250;-66
2023/06/29 11:45:24;;;;;;;24.02;21.42;;;;;;;-141.02;70.22;91978.16;5133123;27;20659;-59
2023/06/29 11:47:54;;;;;;;23.67;21.08;;;;;;;-141.02;72.76;91479.63;5133395;27;20188;-58
2023/06/29 11:50:22;;;;;;;23.95;21.42;;;;;;;-141.02;71.28;92975.47;5133527;27;20578;-68